Terminal Aerodrome Forecast
Issued by NWS Wilmington, OH

Home | Current Version | Previous Version | Text Only | Print | Product List | Glossary On
Versions: 1 2 3 4 5 6 7 8 9 10 11 12 13 14 15 16 17 18 19 20 21 22
000
FTUS41 KILN 260520
TAFILN
TAF
KILN 260520Z 2606/2706 16005KT P6SM SKC
     FM260900 17008KT P6SM VCSH SCT050 BKN120
     FM261300 27014G22KT P6SM -SHRA SCT025 BKN035
      TEMPO 2613/2617 4SM -SHRA BKN025
     FM261700 29012G20KT P6SM BKN025
     FM262000 28012G18KT P6SM SKC
     FM270000 25005KT P6SM SKC=

USA.gov is the U.S. government's official web portal to all federal, state and local government web resources and services.